sensor_id;sensor_type;location;lat;lon;timestamp;pressure;altitude;pressure_sealevel;temperature;humidity
74542;BME280;63015;45.378;20.360;2024-02-26T00:01:18;99904.94;;;9.51;81.15
74542;BME280;63015;45.378;20.360;2024-02-26T00:03:19;99904.06;;;9.55;81.51
74542;BME280;63015;45.378;20.360;2024-02-26T00:05:19;99904.94;;;9.53;81.23
74542;BME280;63015;45.378;20.360;2024-02-26T00:07:20;99906.66;;;9.55;81.75
74542;BME280;63015;45.378;20.360;2024-02-26T00:09:20;99902.34;;;9.56;81.39
74542;BME280;63015;45.378;20.360;2024-02-26T00:11:21;99910.13;;;9.59;81.43
74542;BME280;63015;45.378;20.360;2024-02-26T00:13:21;99910.09;;;9.61;81.57
74542;BME280;63015;45.378;20.360;2024-02-26T00:15:22;99904.06;;;9.57;81.35
74542;BME280;63015;45.378;20.360;2024-02-26T00:17:22;99899.75;;;9.54;81.40
74542;BME280;63015;45.378;20.360;2024-02-26T00:19:23;99899.72;;;9.56;81.48
74542;BME280;63015;45.378;20.360;2024-02-26T00:21:23;99895.41;;;9.53;81.95
74542;BME280;63015;45.378;20.360;2024-02-26T00:23:24;99891.94;;;9.51;81.78
74542;BME280;63015;45.378;20.360;2024-02-26T00:25:24;99896.25;;;9.55;81.70
74542;BME280;63015;45.378;20.360;2024-02-26T00:27:25;99891.97;;;9.47;81.88
74542;BME280;63015;45.378;20.360;2024-02-26T00:29:26;99878.97;;;9.48;82.14
74542;BME280;63015;45.378;20.360;2024-02-26T00:31:26;99886.78;;;9.47;82.27
74542;BME280;63015;45.378;20.360;2024-02-26T00:33:27;99888.50;;;9.49;82.37
74542;BME280;63015;45.378;20.360;2024-02-26T00:35:27;99884.16;;;9.48;82.40
74542;BME280;63015;45.378;20.360;2024-02-26T00:37:28;99885.91;;;9.46;82.38
74542;BME280;63015;45.378;20.360;2024-02-26T00:39:28;99882.44;;;9.47;82.58
74542;BME280;63015;45.378;20.360;2024-02-26T00:41:29;99881.53;;;9.53;82.27
74542;BME280;63015;45.378;20.360;2024-02-26T00:43:29;99883.25;;;9.59;82.19
74542;BME280;63015;45.378;20.360;2024-02-26T00:45:30;99889.28;;;9.65;82.09
74542;BME280;63015;45.378;20.360;2024-02-26T00:47:32;99892.72;;;9.66;82.10
74542;BME280;63015;45.378;20.360;2024-02-26T00:49:32;99875.47;;;9.57;81.87
74542;BME280;63015;45.378;20.360;2024-02-26T00:51:33;99872.81;;;9.62;81.86
74542;BME280;63015;45.378;20.360;2024-02-26T00:53:33;99883.13;;;9.76;81.66
74542;BME280;63015;45.378;20.360;2024-02-26T00:55:34;99891.81;;;9.75;81.58
74542;BME280;63015;45.378;20.360;2024-02-26T00:57:35;99902.19;;;9.81;81.61
74542;BME280;63015;45.378;20.360;2024-02-26T00:59:35;99886.63;;;9.78;81.87
74542;BME280;63015;45.378;20.360;2024-02-26T01:01:36;99896.09;;;9.85;81.76
74542;BME280;63015;45.378;20.360;2024-02-26T01:03:36;99899.56;;;9.85;81.86
74542;BME280;63015;45.378;20.360;2024-02-26T01:05:37;99898.69;;;9.88;82.20
74542;BME280;63015;45.378;20.360;2024-02-26T01:07:38;99895.19;;;9.91;81.90
74542;BME280;63015;45.378;20.360;2024-02-26T01:09:40;99900.38;;;9.92;81.98
74542;BME280;63015;45.378;20.360;2024-02-26T01:11:40;99891.69;;;9.95;82.00
74542;BME280;63015;45.378;20.360;2024-02-26T01:13:40;99893.41;;;9.97;81.98
74542;BME280;63015;45.378;20.360;2024-02-26T01:15:41;99888.22;;;9.93;82.12
74542;BME280;63015;45.378;20.360;2024-02-26T01:17:41;99889.06;;;9.96;82.54
74542;BME280;63015;45.378;20.360;2024-02-26T01:19:42;99882.13;;;9.98;82.21
74542;BME280;63015;45.378;20.360;2024-02-26T01:21:42;99883.84;;;10.01;82.38
74542;BME280;63015;45.378;20.360;2024-02-26T01:23:43;99883.81;;;10.04;82.26
74542;BME280;63015;45.378;20.360;2024-02-26T01:25:43;99879.47;;;10.03;82.34
74542;BME280;63015;45.378;20.360;2024-02-26T01:27:44;99876.00;;;10.06;82.26
74542;BME280;63015;45.378;20.360;2024-02-26T01:29:45;99876.84;;;10.09;82.18
74542;BME280;63015;45.378;20.360;2024-02-26T01:31:45;99883.78;;;10.10;82.23
74542;BME280;63015;45.378;20.360;2024-02-26T01:33:46;99863.94;;;9.94;82.31
74542;BME280;63015;45.378;20.360;2024-02-26T01:35:46;99876.84;;;10.08;82.37
74542;BME280;63015;45.378;20.360;2024-02-26T01:37:47;99879.41;;;10.14;82.36
74542;BME280;63015;45.378;20.360;2024-02-26T01:39:47;99875.13;;;10.07;82.38
74542;BME280;63015;45.378;20.360;2024-02-26T01:41:48;99876.81;;;10.11;82.38
74542;BME280;63015;45.378;20.360;2024-02-26T01:43:48;99877.69;;;10.13;82.59
74542;BME280;63015;45.378;20.360;2024-02-26T01:45:48;99877.69;;;10.10;82.64
74542;BME280;63015;45.378;20.360;2024-02-26T01:47:52;99863.81;;;10.09;82.79
74542;BME280;63015;45.378;20.360;2024-02-26T01:49:54;99866.44;;;10.08;82.91
74542;BME280;63015;45.378;20.360;2024-02-26T01:51:55;99868.19;;;10.09;83.09
74542;BME280;63015;45.378;20.360;2024-02-26T01:53:56;99861.22;;;10.08;83.07
74542;BME280;63015;45.378;20.360;2024-02-26T01:55:58;99857.75;;;10.07;83.11
74542;BME280;63015;45.378;20.360;2024-02-26T01:57:58;99839.59;;;10.02;82.99
74542;BME280;63015;45.378;20.360;2024-02-26T01:59:59;99856.03;;;10.04;83.09
74542;BME280;63015;45.378;20.360;2024-02-26T02:02:01;99849.97;;;10.06;82.98
74542;BME280;63015;45.378;20.360;2024-02-26T02:04:03;99843.91;;;10.02;82.86
74542;BME280;63015;45.378;20.360;2024-02-26T02:06:05;99847.38;;;10.04;82.86
74542;BME280;63015;45.378;20.360;2024-02-26T02:08:05;99854.34;;;9.99;82.90
74542;BME280;63015;45.378;20.360;2024-02-26T02:10:07;99846.56;;;9.94;82.98
74542;BME280;63015;45.378;20.360;2024-02-26T02:12:08;99834.50;;;9.87;83.08
74542;BME280;63015;45.378;20.360;2024-02-26T02:14:08;99846.63;;;9.90;83.02
74542;BME280;63015;45.378;20.360;2024-02-26T02:16:09;99842.31;;;9.82;82.97
74542;BME280;63015;45.378;20.360;2024-02-26T02:18:09;99847.56;;;9.79;83.34
74542;BME280;63015;45.378;20.360;2024-02-26T02:20:15;99851.06;;;9.75;83.49
74542;BME280;63015;45.378;20.360;2024-02-26T02:22:19;99846.72;;;9.71;83.61
74542;BME280;63015;45.378;20.360;2024-02-26T02:24:20;99849.38;;;9.66;83.47
74542;BME280;63015;45.378;20.360;2024-02-26T02:26:20;99853.75;;;9.57;83.99
74542;BME280;63015;45.378;20.360;2024-02-26T02:28:21;99858.13;;;9.56;84.03
74542;BME280;63015;45.378;20.360;2024-02-26T02:30:28;99852.06;;;9.51;83.97
74542;BME280;63015;45.378;20.360;2024-02-26T02:32:29;99862.47;;;9.52;83.79
74542;BME280;63015;45.378;20.360;2024-02-26T02:34:31;99864.22;;;9.47;83.82
74542;BME280;63015;45.378;20.360;2024-02-26T02:36:32;99853.84;;;9.41;83.74
74542;BME280;63015;45.378;20.360;2024-02-26T02:38:32;99859.03;;;9.46;83.80
74542;BME280;63015;45.378;20.360;2024-02-26T02:40:34;99854.69;;;9.45;83.76
74542;BME280;63015;45.378;20.360;2024-02-26T02:42:34;99846.06;;;9.35;83.83
74542;BME280;63015;45.378;20.360;2024-02-26T02:44:35;99847.81;;;9.34;83.97
74542;BME280;63015;45.378;20.360;2024-02-26T02:46:35;99847.84;;;9.33;83.88
74542;BME280;63015;45.378;20.360;2024-02-26T02:48:36;99848.69;;;9.35;84.35
74542;BME280;63015;45.378;20.360;2024-02-26T02:50:36;99841.81;;;9.26;83.96
74542;BME280;63015;45.378;20.360;2024-02-26T02:52:37;99853.94;;;9.29;84.21
74542;BME280;63015;45.378;20.360;2024-02-26T02:54:37;99855.66;;;9.28;84.43
74542;BME280;63015;45.378;20.360;2024-02-26T02:56:40;99862.56;;;9.31;84.33
74542;BME280;63015;45.378;20.360;2024-02-26T02:58:41;99864.34;;;9.29;84.38
74542;BME280;63015;45.378;20.360;2024-02-26T03:00:41;99861.75;;;9.23;84.83
74542;BME280;63015;45.378;20.360;2024-02-26T03:02:42;99862.59;;;9.29;84.66
74542;BME280;63015;45.378;20.360;2024-02-26T03:04:43;99855.63;;;9.33;84.64
74542;BME280;63015;45.378;20.360;2024-02-26T03:06:43;99850.47;;;9.27;84.91
74542;BME280;63015;45.378;20.360;2024-02-26T03:08:44;99853.03;;;9.30;85.03
74542;BME280;63015;45.378;20.360;2024-02-26T03:10:45;99842.63;;;9.30;84.99
74542;BME280;63015;45.378;20.360;2024-02-26T03:12:45;99852.16;;;9.35;84.96
74542;BME280;63015;45.378;20.360;2024-02-26T03:14:46;99848.69;;;9.38;84.88
74542;BME280;63015;45.378;20.360;2024-02-26T03:16:46;99863.38;;;9.44;84.62
74542;BME280;63015;45.378;20.360;2024-02-26T03:18:47;99852.13;;;9.43;84.56
74542;BME280;63015;45.378;20.360;2024-02-26T03:20:47;99849.50;;;9.45;84.32
74542;BME280;63015;45.378;20.360;2024-02-26T03:22:48;99859.00;;;9.50;84.51
74542;BME280;63015;45.378;20.360;2024-02-26T03:24:48;99842.56;;;9.48;84.20
74542;BME280;63015;45.378;20.360;2024-02-26T03:26:49;99855.53;;;9.54;84.16
74542;BME280;63015;45.378;20.360;2024-02-26T03:28:49;99851.22;;;9.52;84.29
74542;BME280;63015;45.378;20.360;2024-02-26T03:30:50;99861.59;;;9.53;84.32
74542;BME280;63015;45.378;20.360;2024-02-26T03:32:50;99862.44;;;9.59;84.18
74542;BME280;63015;45.378;20.360;2024-02-26T03:34:51;99856.34;;;9.58;84.14
74542;BME280;63015;45.378;20.360;2024-02-26T03:36:54;99857.22;;;9.59;84.02
74542;BME280;63015;45.378;20.360;2024-02-26T03:38:55;99852.03;;;9.59;84.01
74542;BME280;63015;45.378;20.360;2024-02-26T03:40:55;99859.81;;;9.62;84.13
74542;BME280;63015;45.378;20.360;2024-02-26T03:42:56;99857.22;;;9.60;84.10
74542;BME280;63015;45.378;20.360;2024-02-26T03:44:58;99851.16;;;9.60;84.11
74542;BME280;63015;45.378;20.360;2024-02-26T03:46:59;99852.00;;;9.60;84.24
74542;BME280;63015;45.378;20.360;2024-02-26T03:48:59;99861.56;;;9.57;84.33
74542;BME280;63015;45.378;20.360;2024-02-26T03:51:00;99855.50;;;9.53;84.41
74542;BME280;63015;45.378;20.360;2024-02-26T03:53:01;99858.94;;;9.61;84.29
74542;BME280;63015;45.378;20.360;2024-02-26T03:55:01;99852.84;;;9.65;83.86
74542;BME280;63015;45.378;20.360;2024-02-26T03:57:02;99853.72;;;9.67;83.86
74542;BME280;63015;45.378;20.360;2024-02-26T03:59:02;99851.13;;;9.64;84.10
74542;BME280;63015;45.378;20.360;2024-02-26T04:01:03;99858.88;;;9.70;83.96
74542;BME280;63015;45.378;20.360;2024-02-26T04:03:03;99858.03;;;9.68;83.91
74542;BME280;63015;45.378;20.360;2024-02-26T04:05:04;99854.53;;;9.76;83.69
74542;BME280;63015;45.378;20.360;2024-02-26T04:07:05;99857.97;;;9.76;83.71
74542;BME280;63015;45.378;20.360;2024-02-26T04:09:06;99860.56;;;9.76;83.61
74542;BME280;63015;45.378;20.360;2024-02-26T04:11:06;99855.38;;;9.78;83.46
74542;BME280;63015;45.378;20.360;2024-02-26T04:13:07;99856.19;;;9.81;83.29
74542;BME280;63015;45.378;20.360;2024-02-26T04:15:09;99855.34;;;9.81;83.46
74542;BME280;63015;45.378;20.360;2024-02-26T04:17:10;99856.19;;;9.81;83.40
74542;BME280;63015;45.378;20.360;2024-02-26T04:19:11;99856.19;;;9.81;83.32
74542;BME280;63015;45.378;20.360;2024-02-26T04:21:11;99844.97;;;9.79;83.13
74542;BME280;63015;45.378;20.360;2024-02-26T04:23:12;99842.38;;;9.78;83.21
74542;BME280;63015;45.378;20.360;2024-02-26T04:25:12;99852.75;;;9.79;83.41
74542;BME280;63015;45.378;20.360;2024-02-26T04:27:13;99850.13;;;9.82;83.21
74542;BME280;63015;45.378;20.360;2024-02-26T04:29:13;99844.06;;;9.79;83.06
74542;BME280;63015;45.378;20.360;2024-02-26T04:31:14;99847.56;;;9.79;83.03
74542;BME280;63015;45.378;20.360;2024-02-26T04:33:14;99846.69;;;9.80;82.90
74542;BME280;63015;45.378;20.360;2024-02-26T04:35:15;99855.38;;;9.78;82.95
74542;BME280;63015;45.378;20.360;2024-02-26T04:37:16;99861.44;;;9.78;82.87
74542;BME280;63015;45.378;20.360;2024-02-26T04:39:16;99856.25;;;9.78;82.55
74542;BME280;63015;45.378;20.360;2024-02-26T04:41:16;99847.63;;;9.68;82.88
74542;BME280;63015;45.378;20.360;2024-02-26T04:43:17;99855.41;;;9.71;82.78
74542;BME280;63015;45.378;20.360;2024-02-26T04:45:18;99853.66;;;9.74;82.81
74542;BME280;63015;45.378;20.360;2024-02-26T04:47:18;99851.97;;;9.66;83.06
74542;BME280;63015;45.378;20.360;2024-02-26T04:49:19;99827.78;;;9.50;82.92
74542;BME280;63015;45.378;20.360;2024-02-26T04:51:19;99851.16;;;9.61;83.04
74542;BME280;63015;45.378;20.360;2024-02-26T04:53:20;99852.84;;;9.67;82.94
74542;BME280;63015;45.378;20.360;2024-02-26T04:55:20;99849.38;;;9.68;83.14
74542;BME280;63015;45.378;20.360;2024-02-26T04:57:21;99847.63;;;9.70;83.10
74542;BME280;63015;45.378;20.360;2024-02-26T04:59:22;99845.00;;;9.71;83.07
74542;BME280;63015;45.378;20.360;2024-02-26T05:01:22;99843.28;;;9.66;82.89
74542;BME280;63015;45.378;20.360;2024-02-26T05:03:23;99844.13;;;9.74;82.93
74542;BME280;63015;45.378;20.360;2024-02-26T05:05:24;99845.84;;;9.75;82.99
74542;BME280;63015;45.378;20.360;2024-02-26T05:07:25;99846.72;;;9.76;82.90
74542;BME280;63015;45.378;20.360;2024-02-26T05:09:25;99832.84;;;9.74;82.65
74542;BME280;63015;45.378;20.360;2024-02-26T05:11:26;99841.47;;;9.79;82.62
74542;BME280;63015;45.378;20.360;2024-02-26T05:13:26;99838.88;;;9.79;82.68
74542;BME280;63015;45.378;20.360;2024-02-26T05:15:27;99850.16;;;9.79;82.48
74542;BME280;63015;45.378;20.360;2024-02-26T05:17:27;99840.59;;;9.80;82.48
74542;BME280;63015;45.378;20.360;2024-02-26T05:19:28;99840.59;;;9.81;82.16
74542;BME280;63015;45.378;20.360;2024-02-26T05:21:28;99839.75;;;9.81;82.43
74542;BME280;63015;45.378;20.360;2024-02-26T05:23:29;99840.56;;;9.86;81.99
74542;BME280;63015;45.378;20.360;2024-02-26T05:25:29;99841.47;;;9.82;81.96
74542;BME280;63015;45.378;20.360;2024-02-26T05:27:30;99851.88;;;9.82;81.91
74542;BME280;63015;45.378;20.360;2024-02-26T05:29:31;99838.88;;;9.77;81.83
74542;BME280;63015;45.378;20.360;2024-02-26T05:31:31;99851.88;;;9.82;81.86
74542;BME280;63015;45.378;20.360;2024-02-26T05:33:32;99851.00;;;9.84;81.77
74542;BME280;63015;45.378;20.360;2024-02-26T05:35:32;99853.63;;;9.83;81.74
74542;BME280;63015;45.378;20.360;2024-02-26T05:37:33;99853.53;;;9.89;81.42
74542;BME280;63015;45.378;20.360;2024-02-26T05:39:33;99850.09;;;9.88;81.54
74542;BME280;63015;45.378;20.360;2024-02-26T05:41:34;99840.59;;;9.84;81.67
74542;BME280;63015;45.378;20.360;2024-02-26T05:43:34;99858.75;;;9.92;81.46
74542;BME280;63015;45.378;20.360;2024-02-26T05:45:35;99854.34;;;10.00;81.29
74542;BME280;63015;45.378;20.360;2024-02-26T05:47:35;99855.22;;;10.01;81.25
74542;BME280;63015;45.378;20.360;2024-02-26T05:49:36;99846.53;;;10.03;81.13
74542;BME280;63015;45.378;20.360;2024-02-26T05:51:36;99849.09;;;10.07;80.86
74542;BME280;63015;45.378;20.360;2024-02-26T05:53:37;99851.66;;;10.13;80.54
74542;BME280;63015;45.378;20.360;2024-02-26T05:55:37;99849.00;;;10.19;80.25
74542;BME280;63015;45.378;20.360;2024-02-26T05:57:38;99848.06;;;10.26;80.15
74542;BME280;63015;45.378;20.360;2024-02-26T05:59:38;99855.78;;;10.34;79.59
74542;BME280;63015;45.378;20.360;2024-02-26T06:01:39;99851.44;;;10.39;79.75
74542;BME280;63015;45.378;20.360;2024-02-26T06:03:39;99860.09;;;10.43;79.41
74542;BME280;63015;45.378;20.360;2024-02-26T06:05:40;99864.44;;;10.44;79.18
74542;BME280;63015;45.378;20.360;2024-02-26T06:07:40;99861.75;;;10.48;79.08
74542;BME280;63015;45.378;20.360;2024-02-26T06:09:40;99869.53;;;10.58;78.55
74542;BME280;63015;45.378;20.360;2024-02-26T06:11:41;99879.91;;;10.59;78.74
74542;BME280;63015;45.378;20.360;2024-02-26T06:13:42;99873.81;;;10.62;78.68
74542;BME280;63015;45.378;20.360;2024-02-26T06:15:42;99868.56;;;10.65;78.44
74542;BME280;63015;45.378;20.360;2024-02-26T06:17:42;99875.47;;;10.67;78.38
74542;BME280;63015;45.378;20.360;2024-02-26T06:19:43;99872.91;;;10.64;78.63
74542;BME280;63015;45.378;20.360;2024-02-26T06:21:44;99872.84;;;10.72;78.20
74542;BME280;63015;45.378;20.360;2024-02-26T06:23:44;99881.53;;;10.74;78.00
74542;BME280;63015;45.378;20.360;2024-02-26T06:25:45;99877.19;;;10.72;77.85
74542;BME280;63015;45.378;20.360;2024-02-26T06:27:46;99871.91;;;10.76;77.89
74542;BME280;63015;45.378;20.360;2024-02-26T06:29:46;99877.16;;;10.75;77.97
74542;BME280;63015;45.378;20.360;2024-02-26T06:31:46;99884.91;;;10.81;77.85
74542;BME280;63015;45.378;20.360;2024-02-26T06:33:49;99886.66;;;10.79;77.85
74542;BME280;63015;45.378;20.360;2024-02-26T06:35:49;99889.19;;;10.86;77.54
74542;BME280;63015;45.378;20.360;2024-02-26T06:37:50;99898.78;;;10.83;77.51
74542;BME280;63015;45.378;20.360;2024-02-26T06:39:52;99891.84;;;10.83;77.64
74542;BME280;63015;45.378;20.360;2024-02-26T06:41:53;99894.38;;;10.91;77.42
74542;BME280;63015;45.378;20.360;2024-02-26T06:44:00;99900.41;;;10.93;77.36
74542;BME280;63015;45.378;20.360;2024-02-26T06:46:01;99900.41;;;10.95;77.27
74542;BME280;63015;45.378;20.360;2024-02-26T06:48:01;99898.63;;;10.98;77.16
74542;BME280;63015;45.378;20.360;2024-02-26T06:50:02;99905.53;;;11.02;77.10
74542;BME280;63015;45.378;20.360;2024-02-26T06:52:03;99898.69;;;10.94;77.13
74542;BME280;63015;45.378;20.360;2024-02-26T06:54:04;99908.97;;;11.05;76.82
74542;BME280;63015;45.378;20.360;2024-02-26T06:56:05;99911.56;;;11.08;76.82
74542;BME280;63015;45.378;20.360;2024-02-26T06:58:06;99908.91;;;11.11;76.83
74542;BME280;63015;45.378;20.360;2024-02-26T07:00:07;99908.06;;;11.09;77.05
74542;BME280;63015;45.378;20.360;2024-02-26T07:02:07;99905.47;;;11.07;76.50
74542;BME280;63015;45.378;20.360;2024-02-26T07:04:08;99914.91;;;11.19;76.43
74542;BME280;63015;45.378;20.360;2024-02-26T07:06:10;99914.00;;;11.23;76.35
74542;BME280;63015;45.378;20.360;2024-02-26T07:08:13;99918.38;;;11.21;76.39
74542;BME280;63015;45.378;20.360;2024-02-26T07:10:13;99914.00;;;11.22;76.17
74542;BME280;63015;45.378;20.360;2024-02-26T07:12:14;99906.19;;;11.22;76.23
74542;BME280;63015;45.378;20.360;2024-02-26T07:14:16;99915.66;;;11.29;76.00
74542;BME280;63015;45.378;20.360;2024-02-26T07:16:16;99913.88;;;11.32;75.80
74542;BME280;63015;45.378;20.360;2024-02-26T07:18:17;99918.94;;;11.45;75.65
74542;BME280;63015;45.378;20.360;2024-02-26T07:20:17;99908.56;;;11.40;75.47
74542;BME280;63015;45.378;20.360;2024-02-26T07:22:18;99914.56;;;11.47;75.46
74542;BME280;63015;45.378;20.360;2024-02-26T07:24:19;99927.50;;;11.56;75.48
74542;BME280;63015;45.378;20.360;2024-02-26T07:26:19;99926.56;;;11.62;74.90
74542;BME280;63015;45.378;20.360;2024-02-26T07:28:20;99929.13;;;11.65;74.71
74542;BME280;63015;45.378;20.360;2024-02-26T07:30:20;99931.69;;;11.70;75.24
74542;BME280;63015;45.378;20.360;2024-02-26T07:32:21;99934.16;;;11.79;74.85
74542;BME280;63015;45.378;20.360;2024-02-26T07:34:22;99939.38;;;11.80;74.35
74542;BME280;63015;45.378;20.360;2024-02-26T07:36:27;99927.19;;;11.79;74.40
74542;BME280;63015;45.378;20.360;2024-02-26T07:38:28;99938.47;;;11.83;74.18
74542;BME280;63015;45.378;20.360;2024-02-26T07:40:28;99933.97;;;11.91;73.96
74542;BME280;63015;45.378;20.360;2024-02-26T07:42:29;99942.66;;;11.93;73.66
74542;BME280;63015;45.378;20.360;2024-02-26T07:44:29;99928.75;;;11.96;73.63
74542;BME280;63015;45.378;20.360;2024-02-26T07:46:30;99939.03;;;12.05;73.30
74542;BME280;63015;45.378;20.360;2024-02-26T07:48:30;99933.81;;;12.05;73.47
74542;BME280;63015;45.378;20.360;2024-02-26T07:50:31;99932.84;;;12.12;73.10
74542;BME280;63015;45.378;20.360;2024-02-26T07:52:31;99937.13;;;12.16;73.08
74542;BME280;63015;45.378;20.360;2024-02-26T07:54:32;99923.06;;;12.25;72.79
74542;BME280;63015;45.378;20.360;2024-02-26T07:56:32;99936.97;;;12.27;72.66
74542;BME280;63015;45.378;20.360;2024-02-26T07:58:33;99935.94;;;12.39;72.71
74542;BME280;63015;45.378;20.360;2024-02-26T08:00:33;99927.97;;;12.47;72.46
74542;BME280;63015;45.378;20.360;2024-02-26T08:02:34;99932.28;;;12.49;72.51
74542;BME280;63015;45.378;20.360;2024-02-26T08:04:34;99931.47;;;12.46;72.21
74542;BME280;63015;45.378;20.360;2024-02-26T08:06:35;99937.28;;;12.62;71.82
74542;BME280;63015;45.378;20.360;2024-02-26T08:08:35;99917.38;;;12.53;71.90
74542;BME280;63015;45.378;20.360;2024-02-26T08:10:36;99934.56;;;12.68;71.23
74542;BME280;63015;45.378;20.360;2024-02-26T08:12:36;99936.97;;;12.80;71.10
74542;BME280;63015;45.378;20.360;2024-02-26T08:14:37;99935.22;;;12.81;70.79
74542;BME280;63015;45.378;20.360;2024-02-26T08:16:37;99933.31;;;12.91;70.79
74542;BME280;63015;45.378;20.360;2024-02-26T08:18:38;99929.00;;;12.87;70.03
74542;BME280;63015;45.378;20.360;2024-02-26T08:20:38;99938.31;;;13.02;70.07
74542;BME280;63015;45.378;20.360;2024-02-26T08:22:39;99933.94;;;13.02;70.20
74542;BME280;63015;45.378;20.360;2024-02-26T08:24:39;99930.41;;;13.06;69.50
74542;BME280;63015;45.378;20.360;2024-02-26T08:26:40;99929.34;;;13.16;69.81
74542;BME280;63015;45.378;20.360;2024-02-26T08:28:40;99930.13;;;13.20;69.44
74542;BME280;63015;45.378;20.360;2024-02-26T08:30:41;99923.75;;;13.33;69.14
74542;BME280;63015;45.378;20.360;2024-02-26T08:32:42;99925.41;;;13.41;68.92
74542;BME280;63015;45.378;20.360;2024-02-26T08:34:42;99928.78;;;13.44;68.65
74542;BME280;63015;45.378;20.360;2024-02-26T08:36:43;99927.84;;;13.48;68.34
74542;BME280;63015;45.378;20.360;2024-02-26T08:38:44;99929.41;;;13.57;67.97
74542;BME280;63015;45.378;20.360;2024-02-26T08:40:44;99925.72;;;13.66;67.73
74542;BME280;63015;45.378;20.360;2024-02-26T08:42:45;99926.34;;;13.77;67.19
74542;BME280;63015;45.378;20.360;2024-02-26T08:44:46;99926.72;;;14.00;67.01
74542;BME280;63015;45.378;20.360;2024-02-26T08:46:46;99927.22;;;14.17;65.13
74542;BME280;63015;45.378;20.360;2024-02-26T08:48:47;99923.13;;;14.41;65.42
74542;BME280;63015;45.378;20.360;2024-02-26T08:50:47;99917.03;;;14.41;64.19
74542;BME280;63015;45.378;20.360;2024-02-26T08:52:48;99919.59;;;14.44;64.04
74542;BME280;63015;45.378;20.360;2024-02-26T08:54:51;99923.69;;;14.54;63.21
74542;BME280;63015;45.378;20.360;2024-02-26T08:56:51;99927.16;;;14.55;63.51
74542;BME280;63015;45.378;20.360;2024-02-26T08:58:52;99929.75;;;14.56;63.55
74542;BME280;63015;45.378;20.360;2024-02-26T09:00:54;99928.34;;;14.43;63.40
74542;BME280;63015;45.378;20.360;2024-02-26T09:02:55;99934.53;;;14.40;63.63
74542;BME280;63015;45.378;20.360;2024-02-26T09:04:55;99926.56;;;14.43;63.01
74542;BME280;63015;45.378;20.360;2024-02-26T09:06:57;99925.53;;;14.51;63.15
74542;BME280;63015;45.378;20.360;2024-02-26T09:08:57;99925.06;;;14.69;62.93
74542;BME280;63015;45.378;20.360;2024-02-26T09:10:58;99915.69;;;14.93;62.02
74542;BME280;63015;45.378;20.360;2024-02-26T09:12:58;99917.00;;;15.10;61.72
74542;BME280;63015;45.378;20.360;2024-02-26T09:14:59;99915.03;;;15.18;61.27
74542;BME280;63015;45.378;20.360;2024-02-26T09:16:59;99911.16;;;15.32;60.86
74542;BME280;63015;45.378;20.360;2024-02-26T09:19:00;99920.16;;;15.53;59.56
74542;BME280;63015;45.378;20.360;2024-02-26T09:21:04;99919.81;;;15.65;58.48
74542;BME280;63015;45.378;20.360;2024-02-26T09:23:05;99910.38;;;15.88;57.84
74542;BME280;63015;45.378;20.360;2024-02-26T09:25:05;99909.63;;;16.13;57.72
74542;BME280;63015;45.378;20.360;2024-02-26T09:27:06;99911.25;;;16.43;56.66
74542;BME280;63015;45.378;20.360;2024-02-26T09:29:07;99903.56;;;16.64;55.56
74542;BME280;63015;45.378;20.360;2024-02-26T09:31:08;99902.84;;;16.84;55.15
74542;BME280;63015;45.378;20.360;2024-02-26T09:33:09;99900.75;;;17.19;55.63
74542;BME280;63015;45.378;20.360;2024-02-26T09:35:09;99898.81;;;17.48;54.68
74542;BME280;63015;45.378;20.360;2024-02-26T09:37:10;99892.44;;;17.54;53.15
74542;BME280;63015;45.378;20.360;2024-02-26T09:39:10;99898.38;;;17.83;53.59
74542;BME280;63015;45.378;20.360;2024-02-26T09:41:14;99896.56;;;17.61;52.38
74542;BME280;63015;45.378;20.360;2024-02-26T09:43:17;99896.75;;;18.02;51.90
74542;BME280;63015;45.378;20.360;2024-02-26T09:45:23;99879.16;;;18.03;51.21
74542;BME280;63015;45.378;20.360;2024-02-26T09:47:26;99895.16;;;18.20;50.22
74542;BME280;63015;45.378;20.360;2024-02-26T09:49:28;99893.56;;;18.16;49.54
74542;BME280;63015;45.378;20.360;2024-02-26T09:51:29;99898.22;;;18.52;50.45
74542;BME280;63015;45.378;20.360;2024-02-26T09:53:30;99896.69;;;18.47;49.29
74542;BME280;63015;45.378;20.360;2024-02-26T09:55:32;99887.94;;;18.46;48.86
74542;BME280;63015;45.378;20.360;2024-02-26T09:57:32;99888.03;;;18.43;48.34
74542;BME280;63015;45.378;20.360;2024-02-26T09:59:39;99897.44;;;18.71;47.90
74542;BME280;63015;45.378;20.360;2024-02-26T10:01:42;99886.44;;;18.61;48.15
74542;BME280;63015;45.378;20.360;2024-02-26T10:03:43;99897.91;;;19.01;47.78
74542;BME280;63015;45.378;20.360;2024-02-26T10:05:46;99900.28;;;18.87;47.68
74542;BME280;63015;45.378;20.360;2024-02-26T10:07:49;99892.47;;;18.84;47.74
74542;BME280;63015;45.378;20.360;2024-02-26T10:09:49;99892.03;;;19.15;47.40
74542;BME280;63015;45.378;20.360;2024-02-26T10:11:50;99890.25;;;18.95;47.18
74542;BME280;63015;45.378;20.360;2024-02-26T10:13:51;99884.72;;;18.81;47.00
74542;BME280;63015;45.378;20.360;2024-02-26T10:15:52;99903.38;;;19.17;47.02
74542;BME280;63015;45.378;20.360;2024-02-26T10:17:53;99887.75;;;19.32;47.57
74542;BME280;63015;45.378;20.360;2024-02-26T10:19:54;99884.41;;;19.28;46.49
74542;BME280;63015;45.378;20.360;2024-02-26T10:21:57;99878.09;;;19.69;46.51
74542;BME280;63015;45.378;20.360;2024-02-26T10:23:58;99889.03;;;19.42;45.72
74542;BME280;63015;45.378;20.360;2024-02-26T10:25:58;99884.19;;;19.52;45.76
74542;BME280;63015;45.378;20.360;2024-02-26T10:28:00;99883.38;;;19.69;45.35
74542;BME280;63015;45.378;20.360;2024-02-26T10:30:14;99885.25;;;19.86;44.90
74542;BME280;63015;45.378;20.360;2024-02-26T10:32:15;99882.53;;;19.68;45.21
74542;BME280;63015;45.378;20.360;2024-02-26T10:34:16;99879.53;;;19.76;45.19
74542;BME280;63015;45.378;20.360;2024-02-26T10:36:17;99882.38;;;19.71;45.05